Time;durP1;ratioP1;P1;durP2;ratioP2;P2;SDS_P1;SDS_P2;PMS_P1;PMS_P2;Temp;Humidity;BMP_temperature;BMP_pressure;BME280_temperature;BME280_humidity;BME280_pressure;Samples;Min_cycle;Max_cycle;Signal;HPM_P1;HPM_P2
2023/08/08 00:01:33;;;;;;;7.18;2.88;;;;;;;-143.21;77.65;71737.06;5092720;28;20196;-82
2023/08/08 00:04:02;;;;;;;5.15;3.42;;;;;;;-143.21;76.97;71737.06;5072767;28;20204;-82
2023/08/08 00:06:29;;;;;;;4.97;3.15;;;;;;;-143.21;76.88;71743.00;5071967;28;20288;-82
2023/08/08 00:08:57;;;;;;;2.70;2.25;;;;;;;-143.21;76.19;71746.97;5072710;28;20192;-82
2023/08/08 00:11:24;;;;;;;3.22;1.83;;;;;;;-143.21;76.54;71750.94;5084582;28;20595;-83
2023/08/08 00:13:50;;;;;;;1.60;1.50;;;;;;;-143.21;76.20;71754.91;5092293;28;20223;-82
2023/08/08 00:16:17;;;;;;;1.75;1.58;;;;;;;-143.21;76.03;71764.81;5076387;28;20216;-81
2023/08/08 00:18:44;;;;;;;2.53;1.52;;;;;;;-143.21;75.85;71770.78;5071901;28;20197;-81
2023/08/08 00:21:11;;;;;;;3.13;1.67;;;;;;;-143.21;74.99;71768.78;5071507;28;20680;-81
2023/08/08 00:23:37;;;;;;;2.00;1.50;;;;;;;-143.21;75.09;71768.78;5071955;28;20201;-81
2023/08/08 00:26:06;;;;;;;1.70;1.60;;;;;;;-143.21;75.33;71770.78;5071754;28;20220;-81
2023/08/08 00:28:32;;;;;;;1.60;1.50;;;;;;;-143.21;74.30;71778.72;5071786;28;20249;-81
2023/08/08 00:31:01;;;;;;;1.40;1.30;;;;;;;-143.21;73.84;71784.66;5071533;28;20259;-81
2023/08/08 00:33:30;;;;;;;1.73;1.55;;;;;;;-143.21;73.94;71798.53;5071523;28;20274;-82
2023/08/08 00:35:57;;;;;;;2.30;1.40;;;;;;;-143.21;73.88;71808.44;5070890;28;20193;-81
2023/08/08 00:38:24;;;;;;;1.53;1.40;;;;;;;-143.21;74.44;71808.44;5071365;28;20193;-81
2023/08/08 00:40:51;;;;;;;1.67;1.57;;;;;;;-143.21;75.43;71836.22;5071372;28;20209;-81
2023/08/08 00:43:19;;;;;;;4.03;1.57;;;;;;;-143.21;75.62;71848.09;5071032;28;20664;-81
2023/08/08 00:45:46;;;;;;;4.50;2.70;;;;;;;-143.21;76.41;71873.88;5071703;28;20217;-81
2023/08/08 00:48:14;;;;;;;4.80;1.83;;;;;;;-143.21;77.26;71911.56;5071424;28;20255;-81
2023/08/08 00:50:44;;;;;;;2.50;1.70;;;;;;;-143.21;77.95;71933.38;5070597;28;20720;-82
2023/08/08 00:53:11;;;;;;;3.63;1.70;;;;;;;-143.21;78.83;71959.16;5071182;28;20664;-81
2023/08/08 00:55:38;;;;;;;2.70;1.70;;;;;;;-143.21;79.25;71967.09;5071640;28;20197;-81
2023/08/08 00:58:05;;;;;;;1.97;1.77;;;;;;;-143.21;79.32;71977.00;5071090;28;20197;-82
2023/08/08 01:00:33;;;;;;;3.93;1.90;;;;;;;-143.21;79.21;71971.06;5071136;28;20213;-82
2023/08/08 01:03:00;;;;;;;1.90;1.80;;;;;;;-143.21;78.83;71957.16;5071231;28;20823;-81
2023/08/08 01:05:34;;;;;;;2.13;1.93;;;;;;;-143.21;78.21;71937.34;5071081;28;20213;-81
2023/08/08 01:08:05;;;;;;;2.97;1.70;;;;;;;-143.21;77.23;71939.31;5071269;28;20617;-82
2023/08/08 01:10:37;;;;;;;2.63;1.90;;;;;;;-143.21;76.95;71939.31;5070725;28;20197;-81
2023/08/08 01:13:10;;;;;;;1.80;1.70;;;;;;;-143.21;76.72;71941.31;5070624;28;20193;-81
2023/08/08 01:15:38;;;;;;;1.80;1.70;;;;;;;-143.21;76.75;71945.28;5076533;28;20213;-81
2023/08/08 01:18:07;;;;;;;1.83;1.60;;;;;;;-143.21;77.19;71945.28;5070770;28;20600;-81
2023/08/08 01:20:34;;;;;;;3.30;1.80;;;;;;;-143.21;76.97;71959.16;5070500;28;20208;-81
2023/08/08 01:23:12;;;;;;;1.60;1.50;;;;;;;-143.21;77.45;71978.97;5070620;28;20702;-81
2023/08/08 01:25:41;;;;;;;2.00;1.50;;;;;;;-143.21;77.85;71973.03;5070740;28;20262;-81
2023/08/08 01:28:09;;;;;;;2.40;2.00;;;;;;;-143.21;77.95;71969.06;5070848;28;20254;-82
2023/08/08 01:30:36;;;;;;;2.87;1.80;;;;;;;-143.21;77.65;71951.22;5070742;28;20204;-82
2023/08/08 01:33:04;;;;;;;1.93;1.80;;;;;;;-143.21;77.07;71949.25;5073745;28;20212;-81
2023/08/08 01:35:37;;;;;;;6.80;1.70;;;;;;;-143.21;77.14;71978.97;5070400;28;20221;-82
2023/08/08 01:38:12;;;;;;;1.97;1.77;;;;;;;-143.21;77.66;72000.78;5070613;28;20205;-83
2023/08/08 01:40:43;;;;;;;2.50;1.63;;;;;;;-143.21;78.66;72020.63;5070553;28;20212;-81
2023/08/08 01:43:10;;;;;;;2.00;1.90;;;;;;;-143.21;79.09;72034.50;5070778;28;20236;-80
2023/08/08 01:45:38;;;;;;;2.77;1.80;;;;;;;-143.21;79.02;72038.47;5070437;28;20209;-81
2023/08/08 01:48:08;;;;;;;1.93;1.73;;;;;;;-143.21;79.75;72050.38;5071135;28;20633;-81
2023/08/08 01:50:35;;;;;;;1.70;1.60;;;;;;;-143.21;79.48;72054.34;5070008;28;20233;-82
2023/08/08 01:53:02;;;;;;;2.70;1.90;;;;;;;-143.21;80.43;72070.19;5081263;28;20197;-80
2023/08/08 01:55:29;;;;;;;1.97;1.87;;;;;;;-143.21;81.40;72086.06;5070584;28;20233;-80
2023/08/08 01:57:57;;;;;;;2.00;1.80;;;;;;;-143.21;82.11;72101.94;5070681;28;20648;-80
2023/08/08 02:00:24;;;;;;;2.60;1.87;;;;;;;-143.21;82.15;72101.94;5070112;28;20209;-80
2023/08/08 02:02:51;;;;;;;4.17;1.80;;;;;;;-143.21;82.07;72109.84;5070687;28;20204;-81
2023/08/08 02:05:18;;;;;;;3.27;1.83;;;;;;;-143.21;82.23;72105.91;5070442;28;20569;-80
2023/08/08 02:07:45;;;;;;;3.43;1.90;;;;;;;-143.21;82.26;72113.81;5070223;28;20201;-80
2023/08/08 02:10:11;;;;;;;2.17;1.90;;;;;;;-143.21;82.15;72103.91;5068407;28;20578;-81
2023/08/08 02:12:38;;;;;;;3.03;1.83;;;;;;;-143.21;81.93;72101.94;5073741;28;20573;-81
2023/08/08 02:15:08;;;;;;;1.90;1.80;;;;;;;-143.21;81.97;72097.97;5082026;28;20216;-81
2023/08/08 02:17:34;;;;;;;2.50;2.00;;;;;;;-143.21;81.68;72107.88;5070341;28;20657;-81
2023/08/08 02:20:02;;;;;;;2.03;1.90;;;;;;;-143.21;81.85;72111.84;5080520;28;20284;-81
2023/08/08 02:22:29;;;;;;;1.97;1.87;;;;;;;-143.21;81.98;72117.78;5070201;28;20205;-81
2023/08/08 02:24:56;;;;;;;3.07;2.13;;;;;;;-143.21;82.26;72117.78;5070250;28;20660;-81
2023/08/08 02:27:23;;;;;;;2.70;2.20;;;;;;;-143.21;82.25;72121.75;5070373;28;20200;-83
2023/08/08 02:29:49;;;;;;;2.63;2.43;;;;;;;-143.21;82.31;72123.75;5070265;28;20317;-84
2023/08/08 02:32:18;;;;;;;3.87;2.30;;;;;;;-143.21;82.40;72127.72;5069448;28;20201;-83
2023/08/08 02:34:44;;;;;;;2.77;2.30;;;;;;;-143.21;82.79;72129.69;5069968;28;20221;-83
2023/08/08 02:37:11;;;;;;;2.37;2.17;;;;;;;-143.21;82.70;72115.81;5069919;28;20664;-83
2023/08/08 02:39:38;;;;;;;2.87;2.40;;;;;;;-143.21;82.83;72113.81;5070320;28;20672;-83
2023/08/08 02:42:06;;;;;;;3.03;2.57;;;;;;;-143.21;82.56;72113.81;5070442;28;20201;-82
2023/08/08 02:44:33;;;;;;;3.83;2.53;;;;;;;-143.21;82.91;72119.78;5070070;28;20190;-82
2023/08/08 02:47:00;;;;;;;3.33;2.60;;;;;;;-143.21;83.09;72125.72;5070404;28;20201;-82
2023/08/08 02:49:28;;;;;;;3.20;2.90;;;;;;;-143.21;83.08;72127.72;5070605;28;20197;-81
2023/08/08 02:51:55;;;;;;;3.00;2.70;;;;;;;-143.21;83.54;72125.72;5069952;28;20320;-81
2023/08/08 02:54:22;;;;;;;3.10;2.80;;;;;;;-143.21;84.09;72125.72;5069873;28;20655;-81
2023/08/08 02:56:49;;;;;;;3.90;2.87;;;;;;;-143.21;84.28;72145.56;5069834;28;20216;-81
2023/08/08 02:59:15;;;;;;;3.57;3.17;;;;;;;-143.21;84.39;72149.53;5072209;28;20217;-81
2023/08/08 03:01:43;;;;;;;3.87;3.40;;;;;;;-143.21;84.93;72145.56;5073619;28;20659;-83
2023/08/08 03:04:09;;;;;;;3.40;3.10;;;;;;;-143.21;84.67;72147.53;5073505;28;20288;-82
2023/08/08 03:06:37;;;;;;;3.50;3.20;;;;;;;-143.21;84.64;72137.63;5073303;28;20201;-84
2023/08/08 03:09:05;;;;;;;3.50;3.10;;;;;;;-143.21;84.44;72139.59;5073378;28;20205;-84
2023/08/08 03:11:31;;;;;;;3.43;3.13;;;;;;;-143.21;84.42;72137.63;5073411;28;20205;-84
2023/08/08 03:13:58;;;;;;;3.40;3.10;;;;;;;-143.21;84.39;72139.59;5073302;28;20197;-84
2023/08/08 03:16:25;;;;;;;10.57;3.43;;;;;;;-143.21;84.01;72145.56;5073107;28;20193;-83
2023/08/08 03:18:52;;;;;;;3.47;3.17;;;;;;;-143.21;83.81;72141.59;5073692;28;20258;-84
2023/08/08 03:21:18;;;;;;;3.90;3.50;;;;;;;-143.21;83.60;72137.63;5073166;28;20208;-83
2023/08/08 03:23:47;;;;;;;3.77;3.37;;;;;;;-143.21;83.29;72137.63;5073295;28;20308;-83
2023/08/08 03:26:13;;;;;;;3.63;3.33;;;;;;;-143.21;83.15;72139.59;5073271;28;20189;-83
2023/08/08 03:28:40;;;;;;;6.23;3.40;;;;;;;-143.21;83.21;72143.56;5072717;28;20209;-84
2023/08/08 03:31:07;;;;;;;4.07;3.60;;;;;;;-143.21;83.62;72141.59;5079084;28;20224;-81
2023/08/08 03:33:34;;;;;;;5.93;3.60;;;;;;;-143.21;83.01;72137.63;5072889;28;20208;-82
2023/08/08 03:36:01;;;;;;;4.20;3.40;;;;;;;-143.21;82.83;72131.69;5072960;28;20256;-82
2023/08/08 03:38:28;;;;;;;4.50;4.10;;;;;;;-143.21;82.98;72131.69;5072564;28;20205;-82
2023/08/08 03:40:56;;;;;;;5.80;4.20;;;;;;;-143.21;82.99;72139.59;5072791;28;20202;-81
2023/08/08 03:43:23;;;;;;;4.27;3.87;;;;;;;-143.21;82.26;72139.59;5072775;28;20208;-81
2023/08/08 03:45:50;;;;;;;5.93;4.67;;;;;;;-143.21;82.29;72143.56;5074543;28;20232;-82
2023/08/08 03:48:17;;;;;;;6.27;4.20;;;;;;;-143.21;82.36;72133.66;5071821;28;20202;-82
2023/08/08 03:50:43;;;;;;;8.80;4.57;;;;;;;-143.21;82.52;72139.59;5071733;28;20232;-85
2023/08/08 03:53:10;;;;;;;5.43;4.33;;;;;;;-143.21;82.70;72139.59;5072351;28;20201;-85
2023/08/08 03:55:37;;;;;;;6.43;4.20;;;;;;;-143.21;82.79;72127.72;5072306;28;20700;-84
2023/08/08 03:58:06;;;;;;;4.83;4.27;;;;;;;-143.21;82.49;72129.69;5072369;28;20181;-83
2023/08/08 04:00:32;;;;;;;6.53;4.20;;;;;;;-143.21;81.63;72123.75;5072164;28;20197;-81
2023/08/08 04:02:59;;;;;;;8.50;4.43;;;;;;;-143.21;81.71;72121.75;5072107;28;20616;-80
2023/08/08 04:05:26;;;;;;;5.33;4.43;;;;;;;-143.21;81.77;72131.69;5072519;28;20201;-80
2023/08/08 04:07:53;;;;;;;5.10;4.60;;;;;;;-143.21;81.48;72129.69;5072184;28;20193;-81
2023/08/08 04:10:20;;;;;;;5.37;4.87;;;;;;;-143.21;81.48;72139.59;5071925;28;20637;-80
2023/08/08 04:12:46;;;;;;;5.63;4.50;;;;;;;-143.21;81.00;72153.47;5072641;28;20284;-82
2023/08/08 04:15:14;;;;;;;5.43;4.70;;;;;;;-143.21;81.49;72153.47;5072859;28;20252;-82
2023/08/08 04:17:41;;;;;;;6.90;4.93;;;;;;;-143.21;81.82;72141.59;5072921;28;20194;-82
2023/08/08 04:20:09;;;;;;;5.60;4.43;;;;;;;-143.21;80.89;72123.75;5072302;28;20613;-82
2023/08/08 04:22:36;;;;;;;4.97;4.33;;;;;;;-143.21;79.92;72115.81;5071373;28;20213;-83
2023/08/08 04:25:05;;;;;;;5.50;5.00;;;;;;;-143.21;79.18;72109.84;5071995;28;20205;-84
2023/08/08 04:27:32;;;;;;;5.30;4.53;;;;;;;-143.21;79.45;72115.81;5072222;28;20208;-83
2023/08/08 04:29:59;;;;;;;5.43;4.90;;;;;;;-143.21;78.96;72101.94;5071819;28;20197;-86
2023/08/08 04:32:27;;;;;;;6.60;4.67;;;;;;;-143.21;79.03;72109.84;5071649;28;20198;-86
2023/08/08 04:34:54;;;;;;;7.87;5.10;;;;;;;-143.21;78.87;72111.84;5070902;28;20232;-84
2023/08/08 04:37:20;;;;;;;7.10;5.47;;;;;;;-143.21;78.61;72119.78;5072626;28;20790;-85
2023/08/08 04:39:47;;;;;;;5.30;4.80;;;;;;;-143.21;79.00;72105.91;5073845;28;20695;-84
2023/08/08 04:42:14;;;;;;;5.83;4.80;;;;;;;-143.21;79.24;72105.91;5071964;28;20590;-84
2023/08/08 04:44:41;;;;;;;7.20;4.70;;;;;;;-143.21;78.88;72103.91;5071606;28;20254;-85
2023/08/08 04:47:07;;;;;;;9.80;4.80;;;;;;;-143.21;78.70;72099.94;5071070;28;20200;-85
2023/08/08 04:49:36;;;;;;;4.97;4.53;;;;;;;-143.21;78.63;72105.91;5071243;28;20573;-85
2023/08/08 04:52:03;;;;;;;6.60;4.70;;;;;;;-143.21;78.81;72103.91;5071088;28;20235;-85
2023/08/08 04:54:30;;;;;;;5.27;4.50;;;;;;;-143.21;78.13;72092.00;5071246;28;20219;-85
2023/08/08 04:56:57;;;;;;;6.00;4.87;;;;;;;-143.21;77.24;72097.97;5071689;28;20206;-82
2023/08/08 04:59:27;;;;;;;5.83;4.90;;;;;;;-143.21;76.92;72115.81;5058546;28;20193;-81
2023/08/08 05:01:54;;;;;;;7.70;4.90;;;;;;;-143.21;77.74;72117.78;5071552;28;20205;-82
2023/08/08 05:04:21;;;;;;;5.00;4.50;;;;;;;-143.21;77.54;72123.75;5071051;28;20208;-83
2023/08/08 05:06:49;;;;;;;5.97;4.83;;;;;;;-143.21;78.13;72137.63;5070717;28;20193;-83
2023/08/08 05:09:16;;;;;;;6.93;4.67;;;;;;;-143.21;78.19;72161.41;5071050;28;20567;-83
2023/08/08 05:11:43;;;;;;;7.63;4.80;;;;;;;-143.21;79.12;72167.38;5071296;28;20205;-82
2023/08/08 05:14:09;;;;;;;6.57;4.90;;;;;;;-143.21;78.71;72163.41;5071336;28;20667;-88
2023/08/08 05:16:36;;;;;;;8.63;4.60;;;;;;;-143.21;78.63;72149.53;5070924;28;20700;-82
2023/08/08 05:19:03;;;;;;;7.33;4.07;;;;;;;-143.21;76.89;72113.81;5071301;28;20231;-82
2023/08/08 05:21:30;;;;;;;6.53;4.37;;;;;;;-143.21;75.64;72092.00;5070508;28;20201;-82
2023/08/08 05:23:58;;;;;;;5.83;4.20;;;;;;;-143.21;75.06;72095.97;5070757;28;20621;-83
2023/08/08 05:26:25;;;;;;;5.53;4.23;;;;;;;-143.21;75.56;72092.00;5071040;28;20193;-82
2023/08/08 05:28:51;;;;;;;8.33;4.07;;;;;;;-143.21;75.17;72095.97;5071068;28;20206;-82
2023/08/08 05:31:18;;;;;;;4.70;4.30;;;;;;;-143.21;75.27;72086.06;5070680;28;20664;-83
2023/08/08 05:33:45;;;;;;;8.67;4.53;;;;;;;-143.21;75.93;72078.13;5071164;28;20201;-83
2023/08/08 05:36:12;;;;;;;4.93;4.10;;;;;;;-143.21;75.16;72082.09;5070848;28;20224;-83
2023/08/08 05:38:39;;;;;;;8.10;4.03;;;;;;;-143.21;75.27;72086.06;5071630;28;20275;-84
2023/08/08 05:41:07;;;;;;;4.70;4.20;;;;;;;-143.21;75.36;72078.13;5070444;28;20198;-84
2023/08/08 05:43:34;;;;;;;4.37;3.70;;;;;;;-143.21;74.22;72054.34;5076746;28;20201;-85
2023/08/08 05:46:01;;;;;;;6.80;4.00;;;;;;;-143.21;73.19;72010.72;5090300;28;20204;-85
2023/08/08 05:48:28;;;;;;;6.50;3.70;;;;;;;-143.21;70.86;71982.94;5077976;28;20205;-84
2023/08/08 05:50:58;;;;;;;13.50;4.80;;;;;;;-143.21;70.20;71992.88;5070955;28;20225;-83
2023/08/08 05:53:25;;;;;;;4.20;3.80;;;;;;;-143.21;70.53;72014.69;5071004;28;20643;-84
2023/08/08 05:55:52;;;;;;;5.87;4.60;;;;;;;-143.21;72.44;72044.41;5070769;28;20726;-83
2023/08/08 05:58:20;;;;;;;5.77;4.40;;;;;;;-143.21;73.14;72046.41;5071107;28;20190;-83
2023/08/08 06:00:47;;;;;;;8.90;4.70;;;;;;;-143.21;73.11;72048.38;5071259;28;20205;-83
2023/08/08 06:03:14;;;;;;;5.43;4.67;;;;;;;-143.21;73.88;72068.22;5071136;28;20193;-83
2023/08/08 06:05:41;;;;;;;6.00;4.90;;;;;;;-143.21;73.08;72082.09;5070157;28;20201;-83
2023/08/08 06:08:11;;;;;;;6.90;4.40;;;;;;;-143.21;73.25;72107.88;5070414;28;20189;-83
2023/08/08 06:10:38;;;;;;;5.20;4.70;;;;;;;-143.21;74.10;72090.03;5070776;28;20181;-80
2023/08/08 06:13:05;;;;;;;6.80;4.90;;;;;;;-143.21;72.78;72054.34;5070585;28;20190;-83
2023/08/08 06:15:33;;;;;;;5.03;4.43;;;;;;;-143.21;72.44;72020.63;5071492;28;20220;-83
2023/08/08 06:18:00;;;;;;;6.03;4.50;;;;;;;-143.21;72.02;72030.53;5070969;28;20193;-83
2023/08/08 06:20:28;;;;;;;10.23;4.40;;;;;;;-143.21;71.10;72058.31;5071168;28;20198;-83
2023/08/08 06:22:55;;;;;;;4.60;4.20;;;;;;;-143.21;72.31;72072.19;5071214;28;20193;-84
2023/08/08 06:25:22;;;;;;;4.87;4.43;;;;;;;-143.21;72.38;72076.16;5071209;28;20212;-83
2023/08/08 06:27:49;;;;;;;6.07;4.50;;;;;;;-143.21;72.71;72088.03;5071299;28;20283;-83
2023/08/08 06:30:16;;;;;;;5.63;4.60;;;;;;;-143.21;73.54;72078.13;5069102;28;20659;-82
2023/08/08 06:32:44;;;;;;;5.00;4.50;;;;;;;-143.21;73.99;72070.19;5069892;28;20211;-86
2023/08/08 06:35:11;;;;;;;4.97;4.40;;;;;;;-143.21;71.92;72058.31;5073906;28;20280;-83
2023/08/08 06:37:38;;;;;;;4.50;4.10;;;;;;;-143.21;70.83;72042.44;5074590;28;20197;-83
2023/08/08 06:40:07;;;;;;;5.60;3.90;;;;;;;-143.21;71.08;72018.63;5074221;28;20216;-83
2023/08/08 06:42:33;;;;;;;4.70;3.87;;;;;;;-143.21;70.95;72010.72;5074252;28;20232;-84
2023/08/08 06:45:00;;;;;;;5.40;3.70;;;;;;;-143.21;69.18;72004.75;5074197;28;20200;-82
2023/08/08 06:47:27;;;;;;;3.33;3.03;;;;;;;-143.21;66.58;72016.66;5073890;28;20668;-83
2023/08/08 06:49:55;;;;;;;5.80;2.90;;;;;;;-143.21;65.53;72044.41;5073987;28;20206;-84
2023/08/08 06:52:22;;;;;;;2.90;2.70;;;;;;;-143.21;65.59;72058.31;5074091;28;20193;-83
2023/08/08 06:54:49;;;;;;;3.07;2.77;;;;;;;-143.21;65.82;72054.34;5073751;28;20201;-83
2023/08/08 06:57:16;;;;;;;3.90;3.10;;;;;;;-143.21;64.67;72074.16;5074213;28;20236;-84
2023/08/08 06:59:42;;;;;;;3.37;2.77;;;;;;;-143.21;62.99;72092.00;5073642;28;20687;-82
2023/08/08 07:02:11;;;;;;;3.37;3.07;;;;;;;-143.21;63.77;72101.94;5073690;28;20686;-84
2023/08/08 07:04:38;;;;;;;3.87;2.80;;;;;;;-143.21;62.60;72036.50;5073893;28;20743;-84
2023/08/08 07:07:06;;;;;;;4.67;3.17;;;;;;;-143.21;62.46;71998.81;5074014;28;20220;-86
2023/08/08 07:09:34;;;;;;;3.40;3.10;;;;;;;-143.21;62.88;72000.78;5073601;28;20205;-85
2023/08/08 07:12:01;;;;;;;8.73;3.40;;;;;;;-143.21;62.59;72014.69;5073696;28;20660;-85
2023/08/08 07:14:27;;;;;;;3.53;2.40;;;;;;;-143.21;61.67;72032.53;5073754;28;20228;-85
2023/08/08 07:16:55;;;;;;;3.03;2.60;;;;;;;-143.21;61.90;72026.56;5073736;28;20223;-86
2023/08/08 07:19:22;;;;;;;3.10;2.80;;;;;;;-143.21;61.86;72024.59;5073188;28;20682;-84
2023/08/08 07:21:49;;;;;;;5.00;2.60;;;;;;;-143.21;62.04;72014.69;5073030;28;20619;-84
2023/08/08 07:24:18;;;;;;;4.87;2.67;;;;;;;-143.21;63.76;71992.88;5072943;28;20216;-85
2023/08/08 07:26:45;;;;;;;5.10;2.40;;;;;;;-143.21;62.14;72014.69;5072815;28;20201;-88
2023/08/08 07:29:11;;;;;;;6.53;2.57;;;;;;;-143.21;62.98;72028.56;5073140;28;20189;-86
2023/08/08 07:31:38;;;;;;;2.70;2.50;;;;;;;-143.21;61.46;72034.50;5073555;28;20201;-85
2023/08/08 07:34:05;;;;;;;2.50;2.30;;;;;;;-143.21;61.75;72050.38;5073281;28;20189;-85
2023/08/08 07:36:32;;;;;;;2.47;2.27;;;;;;;-143.21;62.75;72048.38;5072963;28;20666;-85
2023/08/08 07:38:59;;;;;;;5.40;2.40;;;;;;;-143.21;62.41;72024.59;5072989;28;20201;-85
2023/08/08 07:41:27;;;;;;;4.17;2.20;;;;;;;-143.21;61.52;72010.72;5073611;28;20197;-85
2023/08/08 07:43:54;;;;;;;2.70;2.30;;;;;;;-143.21;60.70;72018.63;5072506;28;20198;-85
2023/08/08 07:46:21;;;;;;;1.93;1.83;;;;;;;-143.21;60.93;72024.59;5072841;28;20193;-85
2023/08/08 07:48:48;;;;;;;2.60;2.10;;;;;;;-143.21;61.37;72014.69;5072587;28;20507;-85
2023/08/08 07:51:15;;;;;;;3.40;2.00;;;;;;;-143.21;61.01;72014.69;5072644;28;20256;-85
2023/08/08 07:53:41;;;;;;;2.20;2.00;;;;;;;-143.21;61.15;72004.75;5072855;28;20220;-85
2023/08/08 07:56:08;;;;;;;2.57;2.00;;;;;;;-143.21;59.97;72018.63;5073086;28;20332;-85
2023/08/08 07:58:37;;;;;;;2.17;2.03;;;;;;;-143.21;59.34;72012.69;5072287;28;20572;-84
2023/08/08 08:01:03;;;;;;;8.20;2.17;;;;;;;-143.21;59.96;71992.88;5068641;28;20201;-83
2023/08/08 08:03:30;;;;;;;2.20;2.00;;;;;;;-143.21;60.10;71980.97;5071644;28;20287;-84
2023/08/08 08:05:57;;;;;;;2.73;2.20;;;;;;;-143.21;59.56;71978.97;5072175;28;20208;-84
2023/08/08 08:08:24;;;;;;;3.10;2.30;;;;;;;-143.21;60.05;71939.31;5072276;28;20208;-85
2023/08/08 08:10:51;;;;;;;2.78;2.10;;;;;;;-143.21;59.08;71899.66;5072534;28;20199;-86
2023/08/08 08:13:18;;;;;;;11.70;2.30;;;;;;;-143.21;58.22;71852.06;5072649;28;20203;-86
2023/08/08 08:15:46;;;;;;;2.35;2.00;;;;;;;-143.21;57.95;71840.19;5072433;28;20220;-86
2023/08/08 08:18:16;;;;;;;2.67;2.20;;;;;;;-143.21;58.32;71810.44;5072097;28;20645;-86
2023/08/08 08:20:43;;;;;;;4.57;2.67;;;;;;;-143.21;57.13;71768.78;5072512;28;20198;-87
2023/08/08 08:23:10;;;;;;;5.18;2.47;;;;;;;-143.21;56.11;71790.59;5072139;28;20207;-86
2023/08/08 08:25:37;;;;;;;2.50;2.30;;;;;;;-143.21;56.59;71780.69;5072104;28;20205;-86
2023/08/08 08:28:05;;;;;;;2.55;2.35;;;;;;;-143.21;56.38;71784.66;5071750;28;20198;-86
2023/08/08 08:30:32;;;;;;;4.88;2.30;;;;;;;-143.21;56.56;71756.91;5072132;28;20197;-85
2023/08/08 08:33:01;;;;;;;3.75;2.20;;;;;;;-143.21;56.15;71756.91;5071819;28;20270;-85
2023/08/08 08:35:28;;;;;;;2.45;2.25;;;;;;;-143.21;55.61;71748.97;5071742;28;20205;-86
2023/08/08 08:37:55;;;;;;;2.42;2.22;;;;;;;-143.21;54.73;71754.91;5071259;28;20227;-85
2023/08/08 08:40:31;;;;;;;2.40;2.20;;;;;;;-143.21;55.43;71741.03;5071585;28;20197;-88
2023/08/08 08:42:58;;;;;;;3.95;2.92;;;;;;;-143.21;55.67;71729.13;5071994;28;20216;-90
2023/08/08 08:45:26;;;;;;;2.70;2.50;;;;;;;-143.21;55.30;71748.97;5072233;28;20190;-90
2023/08/08 08:47:56;;;;;;;2.80;2.53;;;;;;;-143.21;56.54;71780.69;5072333;28;20197;-89
2023/08/08 08:50:28;;;;;;;3.20;2.83;;;;;;;-143.21;55.99;71778.72;5072610;28;20237;-90
2023/08/08 08:52:57;;;;;;;3.90;3.10;;;;;;;-143.21;56.66;71784.66;5072543;28;20193;-89
2023/08/08 08:55:24;;;;;;;3.17;2.78;;;;;;;-143.21;55.98;71788.63;5072592;28;20194;-90
2023/08/08 08:57:52;;;;;;;3.88;2.63;;;;;;;-143.21;55.92;71814.41;5072075;28;20707;-89
2023/08/08 09:00:19;;;;;;;4.57;2.60;;;;;;;-143.21;56.28;71802.50;5072314;28;20185;-88
2023/08/08 09:02:47;;;;;;;2.97;2.47;;;;;;;-143.21;56.08;71798.53;5071687;28;20201;-89
2023/08/08 09:05:16;;;;;;;2.78;2.55;;;;;;;-143.21;56.17;71794.56;5072146;28;20670;-87
2023/08/08 09:07:44;;;;;;;4.88;2.40;;;;;;;-143.21;56.55;71788.63;5071454;28;20251;-88
2023/08/08 09:10:11;;;;;;;2.63;2.40;;;;;;;-143.21;55.50;71764.81;5072029;28;20224;-88
2023/08/08 09:12:41;;;;;;;4.78;2.38;;;;;;;-143.21;55.90;71743.00;5072493;28;20197;-88
2023/08/08 09:15:31;;;;;;;2.75;2.50;;;;;;;-143.21;54.69;71731.13;5072399;28;20216;-87
2023/08/08 09:18:00;;;;;;;5.78;2.42;;;;;;;-143.21;55.18;71711.28;5072033;28;20308;-88
2023/08/08 09:20:36;;;;;;;2.50;2.30;;;;;;;-143.21;53.54;71741.03;5072543;28;20190;-87
2023/08/08 09:23:05;;;;;;;3.28;2.40;;;;;;;-143.21;53.84;71735.09;5073694;28;20173;-85
2023/08/08 09:25:32;;;;;;;4.07;2.10;;;;;;;-143.21;53.17;71731.13;5073024;28;20189;-84
2023/08/08 09:27:59;;;;;;;2.40;2.20;;;;;;;-143.21;53.26;71725.16;5077258;28;20192;-84
2023/08/08 09:30:27;;;;;;;2.85;2.30;;;;;;;-143.21;54.09;71745.00;5075841;28;20201;-83
2023/08/08 09:32:53;;;;;;;4.55;2.53;;;;;;;-143.21;54.05;71735.09;5072084;28;20707;-83
2023/08/08 09:35:24;;;;;;;3.17;2.20;;;;;;;-143.21;52.82;71750.94;5073155;28;20220;-83
2023/08/08 09:37:53;;;;;;;3.83;2.60;;;;;;;-143.21;53.38;71786.63;5061935;28;20213;-84
2023/08/08 09:40:21;;;;;;;2.88;2.60;;;;;;;-143.21;54.29;71784.66;5071860;28;20205;-84
2023/08/08 09:42:49;;;;;;;3.55;2.50;;;;;;;-143.21;53.83;71778.72;5071351;28;20209;-83
2023/08/08 09:45:16;;;;;;;2.88;2.58;;;;;;;-143.21;53.79;71802.50;5070561;28;20205;-79
2023/08/08 09:47:43;;;;;;;3.17;2.72;;;;;;;-143.21;53.72;71794.56;5070005;28;20198;-79
2023/08/08 09:50:10;;;;;;;2.97;2.70;;;;;;;-143.21;54.26;71810.44;5070266;28;20607;-79
2023/08/08 09:52:38;;;;;;;3.53;2.50;;;;;;;-143.21;53.62;71780.69;5070393;28;20196;-79
2023/08/08 09:55:06;;;;;;;2.90;2.70;;;;;;;-143.21;53.43;71748.97;5069655;28;20259;-79
2023/08/08 09:57:35;;;;;;;3.40;3.00;;;;;;;-143.21;53.05;71727.16;5070517;28;20217;-79
2023/08/08 10:00:05;;;;;;;3.88;2.60;;;;;;;-143.21;51.80;71721.22;5070570;28;20296;-79
2023/08/08 10:02:32;;;;;;;3.22;2.72;;;;;;;-143.21;52.98;71735.09;5070871;28;20197;-79
2023/08/08 10:05:00;;;;;;;6.82;2.90;;;;;;;-143.21;53.17;71717.25;5070926;28;20236;-79
2023/08/08 10:07:27;;;;;;;7.22;3.10;;;;;;;-143.21;53.35;71701.38;5072002;28;20196;-83
2023/08/08 10:09:55;;;;;;;4.93;3.10;;;;;;;-143.21;52.78;71687.50;5077111;28;20703;-84
2023/08/08 10:12:24;;;;;;;3.05;2.70;;;;;;;-143.21;52.28;71653.78;5057592;28;21834;-83
2023/08/08 10:14:57;;;;;;;3.10;2.80;;;;;;;-143.21;52.39;71610.16;5074166;28;20212;-82
2023/08/08 10:17:37;;;;;;;3.33;2.78;;;;;;;-143.21;51.28;71588.38;5074492;28;20256;-83
2023/08/08 10:20:11;;;;;;;3.80;3.10;;;;;;;-143.21;50.40;71554.66;5074415;28;20200;-83
2023/08/08 10:22:44;;;;;;;3.78;2.60;;;;;;;-143.21;50.31;71522.94;5074836;28;20197;-82
2023/08/08 10:25:24;;;;;;;2.83;2.63;;;;;;;-143.21;49.19;71536.81;5074784;28;20234;-84
2023/08/08 10:28:04;;;;;;;3.70;2.80;;;;;;;-143.21;49.97;71540.78;5074841;28;20192;-83
2023/08/08 10:30:46;;;;;;;4.78;2.63;;;;;;;-143.21;49.91;71560.59;5074827;28;20193;-84
2023/08/08 10:33:20;;;;;;;3.45;2.50;;;;;;;-143.21;49.71;71548.72;5079867;28;20579;-90
2023/08/08 10:35:59;;;;;;;2.65;2.45;;;;;;;-143.21;49.62;71528.88;5088909;28;20207;-91
2023/08/08 10:38:40;;;;;;;2.30;2.10;;;;;;;-143.21;49.57;71546.72;5085610;28;20225;-90
2023/08/08 10:41:20;;;;;;;2.80;2.20;;;;;;;-143.21;50.65;71562.59;5096875;28;20173;-90
2023/08/08 10:43:51;;;;;;;6.30;2.40;;;;;;;-143.21;50.07;71562.59;5096569;28;20200;-90
2023/08/08 10:46:26;;;;;;;3.55;2.20;;;;;;;-143.21;49.82;71534.81;5091502;28;20264;-89
2023/08/08 10:48:55;;;;;;;3.67;2.85;;;;;;;-143.21;49.86;71509.06;5090577;28;20200;-90
2023/08/08 10:51:22;;;;;;;2.58;2.17;;;;;;;-143.21;49.08;71475.34;5085268;28;20221;-84
2023/08/08 10:53:52;;;;;;;2.15;1.95;;;;;;;-143.21;48.22;71473.38;5070060;28;20202;-84
2023/08/08 10:56:20;;;;;;;2.40;2.20;;;;;;;-143.21;48.24;71475.34;5057304;28;20730;-85
2023/08/08 10:58:49;;;;;;;4.20;2.10;;;;;;;-143.21;48.92;71447.59;5055191;28;20641;-84
2023/08/08 11:01:17;;;;;;;2.92;2.10;;;;;;;-143.21;48.04;71390.09;5055648;28;20549;-92
2023/08/08 11:03:49;;;;;;;2.03;1.92;;;;;;;-143.21;46.95;71362.34;5055513;28;20610;-88
2023/08/08 11:06:25;;;;;;;2.00;1.90;;;;;;;-143.21;45.88;71346.47;5055837;28;20175;-89
2023/08/08 11:08:55;;;;;;;4.35;2.30;;;;;;;-143.21;45.82;71364.31;5055380;28;20185;-88
2023/08/08 11:11:22;;;;;;;2.30;2.08;;;;;;;-143.21;46.50;71402.00;5056224;28;20579;-88
2023/08/08 11:13:55;;;;;;;2.53;1.85;;;;;;;-143.21;46.61;71384.16;5055131;28;20213;-90
2023/08/08 11:16:22;;;;;;;2.20;2.08;;;;;;;-143.21;45.82;71346.47;5054465;28;20221;-90
2023/08/08 11:18:56;;;;;;;3.28;2.10;;;;;;;-143.21;46.00;71320.69;5054590;28;20222;-90
2023/08/08 11:21:24;;;;;;;2.00;1.80;;;;;;;-143.21;45.66;71273.13;5054902;28;20200;-90